Time;durP1;ratioP1;P1;durP2;ratioP2;P2;SDS_P1;SDS_P2;PMS_P1;PMS_P2;Temp;Humidity;BMP_temperature;BMP_pressure;BME280_temperature;BME280_humidity;BME280_pressure;Samples;Min_cycle;Max_cycle;Signal;HPM_P1;HPM_P2
2023/12/27 00:01:27;;;;;;;;;13.25;9.25;;;;;12.86;88.04;101594.81;5078201;28;45342;-65
2023/12/27 00:03:52;;;;;;;;;12.50;11.50;;;;;12.90;88.10;101604.53;5080427;28;45274;-65
2023/12/27 00:06:18;;;;;;;;;14.25;13.50;;;;;13.00;88.27;101623.91;5080338;28;45322;-65
2023/12/27 00:08:43;;;;;;;;;11.75;11.75;;;;;13.06;88.28;101650.53;5079867;28;45358;-66
2023/12/27 00:11:08;;;;;;;;;9.00;9.00;;;;;12.97;87.91;101632.91;5080150;28;45358;-66
2023/12/27 00:13:34;;;;;;;;;13.75;11.25;;;;;13.06;87.92;101639.81;5062017;28;45523;-66
2023/12/27 00:15:59;;;;;;;;;10.50;10.50;;;;;13.05;87.96;101636.25;5080285;28;45633;-65
2023/12/27 00:18:25;;;;;;;;;15.75;13.25;;;;;12.75;87.68;101589.78;5061726;28;48091;-65
2023/12/27 00:20:50;;;;;;;;;14.25;9.75;;;;;12.80;87.87;101585.16;5061708;28;45400;-66
2023/12/27 00:23:15;;;;;;;;;10.50;10.25;;;;;12.92;87.99;101608.06;5080045;28;45271;-66
2023/12/27 00:25:41;;;;;;;;;11.00;11.00;;;;;12.73;88.12;101576.41;5061664;28;45627;-65
2023/12/27 00:28:06;;;;;;;;;10.25;9.00;;;;;12.84;88.00;101607.38;5079772;28;46335;-65
2023/12/27 00:30:32;;;;;;;;;10.25;9.00;;;;;12.91;88.07;101627.72;5079868;28;45446;-65
2023/12/27 00:32:57;;;;;;;;;11.25;9.00;;;;;12.78;87.96;101598.59;5080042;28;45520;-65
2023/12/27 00:35:22;;;;;;;;;10.75;8.75;;;;;12.82;87.56;101602.06;5079943;28;46145;-65
2023/12/27 00:37:48;;;;;;;;;12.75;11.50;;;;;12.70;87.80;101575.63;5079550;28;46655;-65
2023/12/27 00:40:13;;;;;;;;;13.25;12.50;;;;;12.71;87.60;101582.72;5078284;28;45401;-66
2023/12/27 00:42:39;;;;;;;;;11.75;11.50;;;;;12.69;86.98;101588.13;5061482;28;45438;-66
2023/12/27 00:45:05;;;;;;;;;13.00;10.50;;;;;12.59;88.18;101568.75;5079597;28;45367;-65
2023/12/27 00:47:30;;;;;;;;;11.50;9.25;;;;;12.63;87.95;101566.91;5079596;28;45437;-66
2023/12/27 00:49:56;;;;;;;;;11.25;11.25;;;;;12.76;87.80;101572.75;5079425;28;45297;-66
2023/12/27 00:52:21;;;;;;;;;11.75;8.50;;;;;12.80;87.85;101587.84;5079803;28;45302;-66
2023/12/27 00:54:46;;;;;;;;;11.75;10.50;;;;;12.72;87.65;101569.28;5079232;28;45335;-65
2023/12/27 00:57:12;;;;;;;;;9.00;9.00;;;;;12.83;87.68;101587.75;5079258;28;45426;-65
2023/12/27 00:59:37;;;;;;;;;10.00;9.25;;;;;12.79;88.06;101594.97;5079328;28;45375;-65
2023/12/27 01:02:03;;;;;;;;;9.75;8.00;;;;;12.62;88.09;101545.50;5061261;28;45476;-65
2023/12/27 01:04:28;;;;;;;;;14.00;12.00;;;;;12.85;87.72;101577.88;5061173;28;45375;-66
2023/12/27 01:06:54;;;;;;;;;7.00;7.00;;;;;12.69;87.59;101539.91;5078911;28;46237;-66
2023/12/27 01:09:19;;;;;;;;;9.75;8.00;;;;;12.87;87.66;101575.16;5079081;28;45307;-65
2023/12/27 01:11:44;;;;;;;;;12.25;10.50;;;;;12.85;87.62;101569.84;5079408;28;45299;-65
2023/12/27 01:14:10;;;;;;;;;11.00;7.50;;;;;12.77;87.49;101561.13;5079272;28;45557;-65
2023/12/27 01:16:35;;;;;;;;;8.50;8.25;;;;;12.71;87.25;101555.94;5079258;28;45553;-66
2023/12/27 01:19:00;;;;;;;;;12.25;12.25;;;;;12.63;87.86;101558.84;5079047;28;45819;-65
2023/12/27 01:21:26;;;;;;;;;9.75;8.00;;;;;12.87;87.53;101592.09;5061023;28;45411;-65
2023/12/27 01:23:51;;;;;;;;;10.50;9.25;;;;;12.62;87.47;101561.56;5078884;28;45441;-66
2023/12/27 01:26:17;;;;;;;;;8.00;7.25;;;;;12.72;87.26;101585.38;5060679;28;47183;-66
2023/12/27 01:28:42;;;;;;;;;13.25;11.50;;;;;12.66;87.56;101564.09;5078988;28;45456;-66
2023/12/27 01:31:09;;;;;;;;;11.50;9.25;;;;;12.90;87.34;101596.50;5079240;28;45421;-65
2023/12/27 01:33:35;;;;;;;;;8.00;7.75;;;;;12.82;86.96;101586.00;5078957;28;45772;-65
2023/12/27 01:36:08;;;;;;;;;12.00;12.00;;;;;12.69;86.96;101560.47;5060668;28;47080;-66
2023/12/27 01:38:33;;;;;;;;;11.75;9.75;;;;;12.65;87.39;101545.44;5078615;28;45403;-65
2023/12/27 01:40:59;;;;;;;;;11.00;9.25;;;;;12.81;87.27;101578.88;5078878;28;45413;-65
2023/12/27 01:43:24;;;;;;;;;10.50;9.25;;;;;12.77;87.34;101570.03;5078801;28;45498;-66
2023/12/27 01:45:50;;;;;;;;;7.25;7.25;;;;;12.86;87.02;101579.63;5078827;28;45624;-66
2023/12/27 01:48:20;;;;;;;;;11.25;10.00;;;;;12.78;87.00;101587.03;5078866;28;45299;-66
2023/12/27 01:50:46;;;;;;;;;8.25;8.25;;;;;12.81;87.05;101612.81;5079110;28;45378;-66
2023/12/27 01:53:12;;;;;;;;;16.00;11.75;;;;;12.82;87.31;101618.16;5078442;28;45473;-65
2023/12/27 01:55:38;;;;;;;;;9.00;9.00;;;;;12.55;87.04;101540.31;5078562;28;45432;-66
2023/12/27 01:58:08;;;;;;;;;11.00;8.00;;;;;12.69;86.79;101544.41;5078465;28;45469;-66
2023/12/27 02:00:39;;;;;;;;;10.25;8.00;;;;;12.43;86.45;101511.22;5077424;28;45471;-66
2023/12/27 02:03:05;;;;;;;;;8.25;8.00;;;;;12.57;86.79;101541.13;5078923;28;45373;-66
2023/12/27 02:05:30;;;;;;;;;5.75;5.50;;;;;12.65;86.83;101545.44;5078474;28;46489;-66
2023/12/27 02:07:58;;;;;;;;;11.75;9.25;;;;;12.76;86.56;101556.69;5078648;28;45354;-66
2023/12/27 02:10:23;;;;;;;;;10.75;10.75;;;;;12.35;86.54;101497.16;5078703;28;45320;-65
2023/12/27 02:12:49;;;;;;;;;9.50;7.00;;;;;12.52;87.08;101524.31;5078758;28;45538;-66
2023/12/27 02:15:14;;;;;;;;;7.50;7.00;;;;;12.51;87.23;101540.44;5078397;28;45553;-65
2023/12/27 02:17:40;;;;;;;;;10.75;8.75;;;;;12.70;86.91;101563.13;5079107;28;45276;-66
2023/12/27 02:20:06;;;;;;;;;9.25;7.25;;;;;12.48;87.11;101554.81;5082068;28;45367;-65
2023/12/27 02:22:34;;;;;;;;;9.25;7.00;;;;;12.50;86.88;101534.22;5080710;28;45444;-66
2023/12/27 02:25:00;;;;;;;;;11.25;7.00;;;;;12.46;86.81;101545.03;5063401;28;47359;-65
2023/12/27 02:27:25;;;;;;;;;9.00;9.00;;;;;12.71;86.66;101562.19;5081786;28;45442;-66
2023/12/27 02:29:51;;;;;;;;;7.00;7.00;;;;;12.35;86.51;101510.53;5081987;28;45382;-65
2023/12/27 02:32:16;;;;;;;;;7.00;7.00;;;;;12.50;87.17;101534.22;5062881;28;45484;-65
2023/12/27 02:34:41;;;;;;;;;8.00;6.00;;;;;12.42;86.77;101512.97;5081718;28;46522;-66
2023/12/27 02:37:07;;;;;;;;;7.75;7.00;;;;;12.65;86.59;101565.03;5081738;28;45469;-65
2023/12/27 02:39:32;;;;;;;;;8.75;8.75;;;;;12.46;86.37;101529.84;5081399;28;45342;-65
2023/12/27 02:41:57;;;;;;;;;8.50;6.50;;;;;12.47;86.78;101523.56;5081669;28;45364;-66
2023/12/27 02:44:26;;;;;;;;;9.25;7.75;;;;;12.64;86.48;101557.91;5063278;28;46886;-66
2023/12/27 02:46:54;;;;;;;;;7.75;7.25;;;;;12.43;86.46;101511.22;5081619;28;45377;-66
2023/12/27 02:49:20;;;;;;;;;6.25;5.50;;;;;12.42;86.25;101504.09;5081690;28;45500;-65
2023/12/27 02:51:45;;;;;;;;;7.00;6.75;;;;;12.39;86.54;101483.63;5081710;28;45445;-66
2023/12/27 02:54:11;;;;;;;;;7.50;6.00;;;;;12.55;86.14;101507.31;5081182;28;45567;-66
2023/12/27 02:56:36;;;;;;;;;7.00;6.00;;;;;12.62;86.33;101508.00;5081286;28;45217;-66
2023/12/27 02:59:01;;;;;;;;;9.50;8.00;;;;;12.41;86.10;101472.88;5062723;28;45452;-65
2023/12/27 03:01:27;;;;;;;;;7.75;5.00;;;;;12.28;86.04;101458.97;5081291;28;45459;-65
2023/12/27 03:03:52;;;;;;;;;8.50;8.00;;;;;12.42;86.32;101493.38;5062980;28;46167;-66
2023/12/27 03:06:17;;;;;;;;;9.50;8.00;;;;;12.31;86.24;101482.97;5063110;28;45328;-66
2023/12/27 03:08:43;;;;;;;;;6.75;4.25;;;;;12.32;86.57;101467.78;5062513;28;45342;-66
2023/12/27 03:11:08;;;;;;;;;6.75;5.25;;;;;12.58;86.42;101524.16;5076413;28;45275;-65
2023/12/27 03:13:34;;;;;;;;;7.25;6.00;;;;;12.36;86.09;101469.44;5075088;28;46356;-66
2023/12/27 03:16:04;;;;;;;;;8.50;8.00;;;;;12.37;86.07;101476.56;5062234;28;45759;-66
2023/12/27 03:18:30;;;;;;;;;6.00;6.00;;;;;12.42;85.89;101488.00;5081104;28;45493;-65
2023/12/27 03:20:55;;;;;;;;;7.50;6.00;;;;;12.34;85.93;101464.13;5062677;28;45652;-66
2023/12/27 03:23:20;;;;;;;;;7.00;6.75;;;;;12.38;85.76;101468.50;5080784;28;45436;-66
2023/12/27 03:25:46;;;;;;;;;6.50;6.50;;;;;12.39;85.79;101470.22;5081039;28;45360;-66
2023/12/27 03:28:11;;;;;;;;;7.75;6.75;;;;;12.61;85.72;101499.06;5080741;28;45331;-65
2023/12/27 03:30:36;;;;;;;;;5.25;3.00;;;;;12.56;85.62;101485.84;5081011;28;45307;-66
2023/12/27 03:33:02;;;;;;;;;6.00;6.00;;;;;12.55;85.41;101483.19;5079252;28;46909;-66
2023/12/27 03:35:27;;;;;;;;;10.25;8.00;;;;;12.63;85.48;101493.66;5080991;28;45300;-66
2023/12/27 03:37:54;;;;;;;;;5.75;5.75;;;;;12.45;85.58;101453.13;5080467;28;45339;-66
2023/12/27 03:40:20;;;;;;;;;9.00;7.00;;;;;12.45;85.60;101454.94;5080637;28;45310;-66
2023/12/27 03:42:45;;;;;;;;;6.75;6.75;;;;;12.46;85.27;101454.88;5080489;28;46341;-66
2023/12/27 03:45:10;;;;;;;;;7.00;7.00;;;;;12.33;85.41;101418.66;5080776;28;45236;-66
2023/12/27 03:47:36;;;;;;;;;6.25;5.00;;;;;12.63;85.73;101461.53;5062439;28;45513;-66
2023/12/27 03:50:02;;;;;;;;;7.50;6.00;;;;;12.46;85.20;101429.91;5062426;28;45415;-66
2023/12/27 03:52:28;;;;;;;;;6.00;5.25;;;;;12.51;85.41;101436.91;5080510;28;46203;-66
2023/12/27 03:54:53;;;;;;;;;7.00;6.50;;;;;12.27;85.64;101402.78;5080433;28;45398;-66
2023/12/27 03:57:19;;;;;;;;;7.00;7.00;;;;;12.43;85.31;101441.59;5080326;28;45449;-66
2023/12/27 03:59:44;;;;;;;;;8.50;7.25;;;;;12.34;85.30;101429.31;5080505;28;45494;-65
2023/12/27 04:02:09;;;;;;;;;10.00;6.00;;;;;12.54;85.33;101463.56;5080088;28;51783;-65
2023/12/27 04:04:38;;;;;;;;;7.00;6.50;;;;;12.24;85.43;101419.81;5080399;28;45550;-65
2023/12/27 04:07:03;;;;;;;;;5.00;5.00;;;;;12.23;85.56;101420.75;5080546;28;45375;-65
2023/12/27 04:09:29;;;;;;;;;8.75;7.25;;;;;12.32;85.54;101435.66;5080307;28;45780;-66
2023/12/27 04:11:54;;;;;;;;;5.00;5.00;;;;;12.28;85.37;101434.88;5061611;28;48319;-66
2023/12/27 04:14:19;;;;;;;;;5.00;5.00;;;;;12.52;85.30;101468.09;5078889;28;46176;-66
2023/12/27 04:16:45;;;;;;;;;6.50;5.00;;;;;12.52;85.59;101472.56;5080347;28;45409;-66
2023/12/27 04:19:10;;;;;;;;;5.75;5.25;;;;;12.27;85.43;101413.50;5080083;28;45597;-66
2023/12/27 04:21:36;;;;;;;;;5.00;4.00;;;;;12.53;85.18;101460.91;5080282;28;45815;-66
2023/12/27 04:24:02;;;;;;;;;7.50;6.75;;;;;12.36;85.09;101432.84;5079869;28;45369;-65
2023/12/27 04:26:27;;;;;;;;;5.00;5.00;;;;;12.50;85.44;101453.00;5080088;28;45445;-66
2023/12/27 04:28:52;;;;;;;;;6.75;6.00;;;;;12.26;85.16;101404.56;5080065;28;45371;-65
2023/12/27 04:31:18;;;;;;;;;6.50;5.00;;;;;12.29;85.08;101407.16;5061627;28;47512;-65
2023/12/27 04:33:43;;;;;;;;;5.50;5.50;;;;;12.39;85.19;101419.34;5079944;28;45461;-65
2023/12/27 04:36:08;;;;;;;;;5.25;5.25;;;;;12.43;85.26;101438.91;5080022;28;45391;-66
2023/12/27 04:38:34;;;;;;;;;5.25;4.75;;;;;12.42;85.37;101426.44;5079331;28;45545;-65
2023/12/27 04:41:05;;;;;;;;;6.75;4.00;;;;;12.26;85.14;101395.66;5076666;28;47738;-65
2023/12/27 04:43:30;;;;;;;;;7.50;5.50;;;;;12.14;85.03;101372.81;5079713;28;45442;-65
2023/12/27 04:45:56;;;;;;;;;7.50;6.00;;;;;12.12;85.39;101372.00;5079866;28;45435;-65
2023/12/27 04:48:21;;;;;;;;;5.50;5.25;;;;;12.22;85.24;101382.38;5079586;28;45480;-65
2023/12/27 04:50:47;;;;;;;;;8.00;5.00;;;;;12.36;84.84;101405.19;5079533;28;45389;-65
2023/12/27 04:53:12;;;;;;;;;6.50;6.50;;;;;12.16;85.13;101377.22;5079268;28;45449;-66
2023/12/27 04:55:37;;;;;;;;;6.25;5.00;;;;;12.12;85.09;101366.63;5079627;28;45441;-66
2023/12/27 04:58:03;;;;;;;;;5.25;5.25;;;;;12.27;84.80;101400.97;5079381;28;45632;-66
2023/12/27 05:00:28;;;;;;;;;7.00;6.25;;;;;12.09;85.07;101369.41;5079434;28;45630;-65
2023/12/27 05:02:53;;;;;;;;;6.00;5.50;;;;;12.14;84.95;101397.78;5079378;28;45402;-66
2023/12/27 05:05:18;;;;;;;;;6.50;6.00;;;;;12.01;84.88;101366.94;5061011;28;45385;-66
2023/12/27 05:07:44;;;;;;;;;6.50;5.25;;;;;12.14;84.82;101378.16;5079118;28;45370;-66
2023/12/27 05:10:09;;;;;;;;;6.25;6.00;;;;;12.13;84.73;101373.72;5079367;28;45555;-66
2023/12/27 05:12:35;;;;;;;;;6.75;6.50;;;;;12.10;84.86;101382.75;5060905;28;45625;-66
2023/12/27 05:15:00;;;;;;;;;5.25;5.25;;;;;12.10;85.06;101392.56;5079487;28;45561;-66
2023/12/27 05:17:25;;;;;;;;;5.50;5.00;;;;;12.11;84.97;101376.47;5079308;28;45442;-66
2023/12/27 05:19:51;;;;;;;;;4.75;4.00;;;;;12.32;85.03;101404.41;5079037;28;45412;-66
2023/12/27 05:22:17;;;;;;;;;4.00;4.00;;;;;12.15;84.63;101382.63;5079234;28;45330;-66
2023/12/27 05:24:42;;;;;;;;;5.75;5.75;;;;;12.09;84.42;101386.31;5079173;28;45377;-66
2023/12/27 05:27:08;;;;;;;;;4.00;4.00;;;;;12.16;84.84;101408.44;5079024;28;45327;-66
2023/12/27 05:29:34;;;;;;;;;5.25;4.25;;;;;12.05;84.39;101373.97;5079062;28;45723;-65
2023/12/27 05:32:00;;;;;;;;;5.25;4.75;;;;;12.07;84.84;101364.09;5077603;28;45845;-65
2023/12/27 05:34:25;;;;;;;;;8.25;5.75;;;;;12.08;84.53;101379.22;5079321;28;45314;-66
2023/12/27 05:36:50;;;;;;;;;5.75;5.50;;;;;12.07;84.54;101364.09;5060224;28;45608;-66
2023/12/27 05:39:16;;;;;;;;;8.25;4.75;;;;;12.14;84.48;101389.75;5078460;28;45285;-66
2023/12/27 05:41:41;;;;;;;;;5.25;5.25;;;;;12.05;84.33;101382.00;5078798;28;45418;-66
2023/12/27 05:44:06;;;;;;;;;5.00;4.00;;;;;12.03;84.42;101376.69;5060891;28;45517;-65
2023/12/27 05:46:35;;;;;;;;;6.00;5.50;;;;;12.16;84.33;101374.53;5078834;28;45481;-65
2023/12/27 05:49:01;;;;;;;;;4.50;4.50;;;;;12.23;84.59;101383.28;5060686;28;47348;-66
2023/12/27 05:51:27;;;;;;;;;4.00;3.75;;;;;12.01;84.12;101357.13;5060669;28;45382;-66
2023/12/27 05:53:52;;;;;;;;;5.00;5.00;;;;;12.04;84.09;101356.13;5064060;28;45502;-66
2023/12/27 05:56:18;;;;;;;;;4.25;4.25;;;;;12.12;84.08;101377.34;5063991;28;45532;-65
2023/12/27 05:58:43;;;;;;;;;5.75;4.75;;;;;11.92;84.03;101352.03;5082196;28;45505;-66
2023/12/27 06:01:09;;;;;;;;;5.00;3.50;;;;;11.91;84.24;101349.34;5082221;28;45398;-65
2023/12/27 06:03:34;;;;;;;;;6.75;5.00;;;;;12.05;84.26;101365.94;5063676;28;45410;-66
2023/12/27 06:06:01;;;;;;;;;7.25;5.50;;;;;11.98;84.31;101364.38;5082128;28;45304;-66
2023/12/27 06:08:27;;;;;;;;;6.00;4.75;;;;;11.96;84.08;101358.16;5081966;28;45523;-66
2023/12/27 06:10:52;;;;;;;;;6.50;4.50;;;;;11.99;84.11;101366.97;5081886;28;45457;-66
2023/12/27 06:13:18;;;;;;;;;8.00;6.00;;;;;12.10;84.09;101382.75;5082291;28;45406;-66
2023/12/27 06:15:43;;;;;;;;;7.25;6.00;;;;;11.91;84.14;101355.63;5081872;28;45472;-66
2023/12/27 06:18:09;;;;;;;;;4.75;4.75;;;;;12.15;83.95;101396.88;5082048;28;46317;-66
2023/12/27 06:20:34;;;;;;;;;3.25;3.25;;;;;12.01;84.01;101381.22;5071217;28;45437;-66
2023/12/27 06:23:00;;;;;;;;;5.00;4.75;;;;;12.12;83.98;101396.06;5080719;27;45514;-65
2023/12/27 06:25:25;;;;;;;;;5.00;4.50;;;;;12.07;83.83;101380.16;5081816;28;45516;-65
2023/12/27 06:27:50;;;;;;;;;4.75;4.00;;;;;12.06;83.91;101381.06;5081660;28;46322;-65
2023/12/27 06:30:16;;;;;;;;;3.25;3.25;;;;;12.10;83.83;101387.22;5081819;28;45384;-66
2023/12/27 06:32:41;;;;;;;;;5.50;4.00;;;;;11.99;83.74;101380.34;5071631;28;45311;-66
2023/12/27 06:35:06;;;;;;;;;4.00;3.25;;;;;12.10;83.43;101396.13;5063412;28;45278;-66
2023/12/27 06:37:32;;;;;;;;;5.25;4.25;;;;;11.94;83.77;101368.91;5081562;28;46380;-65
2023/12/27 06:39:57;;;;;;;;;6.00;5.00;;;;;11.99;83.75;101371.44;5081387;28;45470;-66
2023/12/27 06:42:23;;;;;;;;;8.25;4.50;;;;;12.19;83.32;101400.31;5081810;28;45280;-65
2023/12/27 06:44:49;;;;;;;;;3.00;3.00;;;;;12.08;83.93;101394.38;5081604;28;45508;-66
2023/12/27 06:47:14;;;;;;;;;6.75;5.75;;;;;11.93;83.67;101355.56;5063191;28;46415;-65
2023/12/27 06:49:39;;;;;;;;;5.75;4.00;;;;;11.91;83.36;101355.63;5081565;28;45268;-66
2023/12/27 06:52:05;;;;;;;;;5.00;4.00;;;;;11.87;83.55;101349.44;5081724;28;45337;-65
2023/12/27 06:54:30;;;;;;;;;6.50;5.00;;;;;11.90;83.52;101342.28;5062934;28;45541;-65
2023/12/27 06:56:55;;;;;;;;;6.50;5.50;;;;;11.88;83.46;101347.66;5081220;28;45450;-66
2023/12/27 06:59:21;;;;;;;;;6.00;5.50;;;;;12.10;83.54;101379.19;5081270;28;45388;-65
2023/12/27 07:01:46;;;;;;;;;5.75;4.50;;;;;11.95;83.15;101343.91;5081484;28;45587;-65
2023/12/27 07:04:11;;;;;;;;;9.25;4.75;;;;;11.85;83.57;101313.84;5080493;28;45496;-65
2023/12/27 07:06:38;;;;;;;;;7.00;5.50;;;;;11.97;82.76;101341.19;5081238;28;45444;-66
2023/12/27 07:09:04;;;;;;;;;6.25;5.00;;;;;11.98;83.01;101351.00;5062797;28;45430;-66
2023/12/27 07:11:29;;;;;;;;;5.00;5.00;;;;;11.97;82.83;101339.38;5081259;28;45472;-65
2023/12/27 07:13:55;;;;;;;;;6.00;5.00;;;;;12.11;82.85;101354.16;5062837;28;45601;-65
2023/12/27 07:16:20;;;;;;;;;6.00;5.00;;;;;12.13;82.76;101366.59;5081061;28;46348;-66
2023/12/27 07:18:45;;;;;;;;;8.25;5.75;;;;;11.90;82.91;101345.81;5080906;28;45520;-66
2023/12/27 07:21:11;;;;;;;;;6.00;4.25;;;;;11.82;82.67;101321.94;5081184;28;45375;-66
2023/12/27 07:23:37;;;;;;;;;4.00;4.00;;;;;11.91;82.21;101338.66;5080830;28;45570;-66
2023/12/27 07:26:04;;;;;;;;;5.75;5.75;;;;;12.00;82.50;101344.66;5080847;28;45240;-65
2023/12/27 07:28:30;;;;;;;;;6.00;4.00;;;;;11.93;82.50;101326.13;5080982;28;45407;-65
2023/12/27 07:30:56;;;;;;;;;3.75;3.50;;;;;11.90;82.36;101321.72;5081154;28;45469;-66
2023/12/27 07:33:21;;;;;;;;;6.00;5.00;;;;;11.82;82.56;101308.56;5077116;28;45343;-65
2023/12/27 07:35:47;;;;;;;;;6.75;5.75;;;;;11.91;82.27;101335.97;5062539;28;48447;-65
2023/12/27 07:38:12;;;;;;;;;6.25;5.00;;;;;12.00;82.50;101352.69;5080481;28;45484;-66
2023/12/27 07:40:38;;;;;;;;;7.50;6.00;;;;;12.08;82.42;101365.84;5080648;28;45414;-65
2023/12/27 07:43:05;;;;;;;;;5.75;5.75;;;;;11.89;82.08;101332.47;5080546;28;45512;-66
2023/12/27 07:45:30;;;;;;;;;4.75;4.75;;;;;11.86;82.20;101323.63;5080607;28;46110;-66
2023/12/27 07:47:56;;;;;;;;;8.25;5.75;;;;;12.05;82.26;101350.75;5080564;28;45387;-65
2023/12/27 07:50:22;;;;;;;;;6.00;5.50;;;;;11.83;82.03;101317.50;5080786;28;45252;-66
2023/12/27 07:52:47;;;;;;;;;6.00;5.00;;;;;11.84;81.98;101344.19;5080370;28;45276;-66
2023/12/27 07:55:12;;;;;;;;;8.00;6.25;;;;;11.89;82.10;101348.53;5080449;28;46537;-66
2023/12/27 07:57:38;;;;;;;;;8.00;5.00;;;;;11.92;81.99;101362.72;5080311;28;45304;-66
2023/12/27 08:00:07;;;;;;;;;5.00;5.00;;;;;11.68;82.09;101317.00;5080571;28;45248;-65
2023/12/27 08:02:32;;;;;;;;;6.00;6.00;;;;;11.95;82.29;101362.63;5078985;28;45539;-65
2023/12/27 08:04:57;;;;;;;;;6.25;3.00;;;;;11.61;82.20;101303.81;5062094;28;47166;-65
2023/12/27 08:07:23;;;;;;;;;6.50;5.25;;;;;11.80;82.16;101334.47;5080320;28;45432;-66
2023/12/27 08:09:48;;;;;;;;;7.25;6.25;;;;;11.72;82.13;101322.25;5080343;28;45331;-65
2023/12/27 08:12:14;;;;;;;;;6.75;4.00;;;;;11.71;81.98;101328.50;5080034;28;45547;-65
2023/12/27 08:14:39;;;;;;;;;5.50;5.25;;;;;11.67;81.87;101325.91;5079946;28;45452;-65
2023/12/27 08:17:04;;;;;;;;;5.00;4.75;;;;;11.51;81.90;101303.22;5079247;28;45372;-65
2023/12/27 08:19:30;;;;;;;;;7.00;6.25;;;;;11.57;81.97;101321.75;5080317;28;45324;-65
2023/12/27 08:21:55;;;;;;;;;4.75;3.75;;;;;11.73;81.73;101350.72;5079990;28;45454;-66
2023/12/27 08:24:20;;;;;;;;;4.00;4.00;;;;;11.59;81.95;101335.06;5079890;28;46461;-65
2023/12/27 08:26:46;;;;;;;;;5.00;4.00;;;;;11.70;81.74;101361.53;5078551;28;45381;-65
2023/12/27 08:29:12;;;;;;;;;4.25;4.25;;;;;11.74;81.90;101358.72;5080254;28;45423;-65
2023/12/27 08:31:37;;;;;;;;;6.75;5.50;;;;;11.54;81.66;101320.97;5071930;28;45558;-66
2023/12/27 08:34:03;;;;;;;;;5.00;5.00;;;;;11.46;81.76;101322.06;5080032;28;45313;-65
2023/12/27 08:36:29;;;;;;;;;7.75;5.50;;;;;11.51;81.33;101340.66;5061427;28;45276;-65
2023/12/27 08:38:55;;;;;;;;;6.00;4.25;;;;;11.69;81.54;101366.00;5079667;28;45322;-65
2023/12/27 08:41:22;;;;;;;;;6.00;6.00;;;;;11.59;81.39;101340.41;5061475;28;45405;-65
2023/12/27 08:43:47;;;;;;;;;5.00;5.00;;;;;11.64;81.21;101343.84;5079826;28;46144;-65
2023/12/27 08:46:14;;;;;;;;;9.50;7.25;;;;;11.72;81.02;101359.69;5079680;28;45729;-65
2023/12/27 08:48:40;;;;;;;;;5.25;4.00;;;;;11.66;80.50;101345.56;5061685;28;45571;-65
2023/12/27 08:51:06;;;;;;;;;5.75;4.00;;;;;11.70;80.37;101350.84;5079615;28;45600;-65
2023/12/27 08:53:31;;;;;;;;;7.25;5.00;;;;;11.41;80.80;101305.25;5060637;28;47970;-65
2023/12/27 08:55:57;;;;;;;;;4.75;4.50;;;;;11.39;80.56;101293.72;5061112;28;45357;-65
2023/12/27 08:58:22;;;;;;;;;9.00;6.25;;;;;11.54;80.37;101323.63;5079773;28;45265;-65
2023/12/27 09:00:48;;;;;;;;;5.00;5.00;;;;;11.44;80.71;101309.63;5061173;28;45940;-65
2023/12/27 09:03:13;;;;;;;;;21.50;19.50;;;;;11.60;80.19;101337.72;5079391;28;46430;-65
2023/12/27 09:05:39;;;;;;;;;6.00;6.00;;;;;11.61;80.57;101336.81;5079410;28;45474;-65
2023/12/27 09:08:04;;;;;;;;;6.00;5.00;;;;;11.58;80.00;101338.69;5079406;28;45633;-65
2023/12/27 09:10:30;;;;;;;;;6.00;5.00;;;;;11.31;79.68;101296.59;5079338;28;45458;-65
2023/12/27 09:12:55;;;;;;;;;6.25;6.25;;;;;11.48;79.75;101333.56;5079261;28;46444;-66
2023/12/27 09:15:20;;;;;;;;;7.00;6.00;;;;;11.25;80.32;101307.44;5077896;28;45584;-65
2023/12/27 09:17:46;;;;;;;;;6.50;6.25;;;;;11.18;79.94;101299.66;5079509;28;45284;-65
2023/12/27 09:20:11;;;;;;;;;9.75;6.75;;;;;11.30;80.33;101328.72;5079060;28;45576;-65
2023/12/27 09:22:37;;;;;;;;;5.50;5.50;;;;;11.35;80.63;101334.81;5079080;28;45532;-65
2023/12/27 09:25:03;;;;;;;;;10.00;9.00;;;;;11.13;80.67;101297.09;5078851;28;48238;-64
2023/12/27 09:27:30;;;;;;;;;8.00;5.50;;;;;11.21;80.41;101313.81;5082900;28;45453;-64
2023/12/27 09:29:55;;;;;;;;;9.00;5.00;;;;;11.08;80.32;101294.53;5085782;28;45421;-66
2023/12/27 09:32:21;;;;;;;;;7.00;6.00;;;;;11.07;80.48;101300.78;5085741;28;45409;-65
2023/12/27 09:34:46;;;;;;;;;10.75;7.75;;;;;11.11;79.99;101309.63;5085755;28;45382;-65
2023/12/27 09:37:11;;;;;;;;;7.00;5.00;;;;;11.02;80.58;101292.00;5086089;28;45459;-65
2023/12/27 09:39:37;;;;;;;;;6.50;5.75;;;;;11.16;80.06;101307.69;5085207;28;45576;-65
2023/12/27 09:42:04;;;;;;;;;9.00;7.75;;;;;11.25;80.03;101323.47;5085620;28;46058;-65
2023/12/27 09:44:32;;;;;;;;;4.75;4.75;;;;;11.32;80.34;101324.19;5085554;28;45260;-65
2023/12/27 09:47:00;;;;;;;;;7.25;6.25;;;;;11.07;80.48;101286.56;5084435;28;45468;-65
2023/12/27 09:49:27;;;;;;;;;5.50;5.00;;;;;11.36;80.25;101322.31;5085597;28;45382;-65
2023/12/27 09:51:55;;;;;;;;;5.75;5.00;;;;;11.21;79.85;101296.88;5084335;28;47616;-65
2023/12/27 09:54:21;;;;;;;;;6.75;5.75;;;;;11.33;79.68;101320.63;5085124;28;45946;-65
2023/12/27 09:56:47;;;;;;;;;3.50;3.25;;;;;11.14;80.11;101277.44;5085620;28;45469;-65
2023/12/27 09:59:19;;;;;;;;;6.00;6.00;;;;;11.31;80.02;101306.44;5085480;28;45493;-65
2023/12/27 10:01:48;;;;;;;;;10.50;5.50;;;;;11.31;80.46;101301.94;5085362;28;46546;-65
2023/12/27 10:04:25;;;;;;;;;6.50;6.00;;;;;11.16;80.21;101264.06;5085407;28;45460;-65
2023/12/27 10:06:52;;;;;;;;;6.00;5.00;;;;;11.19;80.04;101269.31;5085742;28;45331;-65
2023/12/27 10:09:18;;;;;;;;;5.00;5.00;;;;;11.27;79.71;101272.66;5085197;28;45251;-65
2023/12/27 10:11:44;;;;;;;;;5.00;4.25;;;;;11.26;79.25;101262.88;5085171;28;46388;-65
2023/12/27 10:14:11;;;;;;;;;4.50;4.00;;;;;11.28;79.47;101269.09;5085222;28;45384;-65
2023/12/27 10:16:36;;;;;;;;;4.75;3.75;;;;;11.23;79.42;101244.28;5083331;28;45323;-65
2023/12/27 10:19:05;;;;;;;;;5.50;5.25;;;;;11.44;79.40;101277.56;5066839;28;45525;-65
2023/12/27 10:21:42;;;;;;;;;7.50;5.25;;;;;11.51;79.28;101273.81;5077222;28;46497;-65
2023/12/27 10:24:08;;;;;;;;;5.00;5.00;;;;;11.56;79.53;101271.88;5085050;28;45447;-65
2023/12/27 10:26:35;;;;;;;;;5.50;4.75;;;;;11.47;79.02;101253.41;5066953;28;45394;-65
2023/12/27 10:29:01;;;;;;;;;4.00;4.00;;;;;11.52;78.73;101255.97;5085248;28;45413;-65
2023/12/27 10:31:26;;;;;;;;;8.25;6.00;;;;;11.27;78.62;101229.91;5084987;28;45572;-65
2023/12/27 10:33:52;;;;;;;;;4.25;3.75;;;;;11.51;78.24;101263.13;5085214;28;45303;-65
2023/12/27 10:36:17;;;;;;;;;5.75;5.00;;;;;11.21;78.50;101214.03;5085184;28;45395;-65
2023/12/27 10:38:45;;;;;;;;;4.00;3.00;;;;;11.49;78.35;101263.16;5082158;28;45574;-65
2023/12/27 10:41:10;;;;;;;;;5.00;4.00;;;;;11.27;78.28;101211.19;5081424;28;45472;-65
2023/12/27 10:43:35;;;;;;;;;5.00;5.00;;;;;11.24;78.16;101198.81;5081792;28;45361;-65
2023/12/27 10:46:10;;;;;;;;;5.75;4.00;;;;;11.38;78.47;101210.91;5081632;28;45393;-65
2023/12/27 10:48:40;;;;;;;;;5.75;4.00;;;;;11.48;78.73;101218.63;5081578;28;45451;-65
2023/12/27 10:51:09;;;;;;;;;2.00;1.75;;;;;11.34;78.40;101187.84;5081267;28;45697;-65
2023/12/27 10:53:35;;;;;;;;;3.25;3.00;;;;;11.39;78.10;101197.47;5081370;28;45418;-65
2023/12/27 10:56:03;;;;;;;;;3.00;3.00;;;;;11.30;78.35;101169.22;5081366;28;45664;-65
2023/12/27 10:58:30;;;;;;;;;3.00;3.00;;;;;11.25;78.37;101160.47;5080102;28;45580;-65
2023/12/27 11:00:58;;;;;;;;;4.25;3.25;;;;;11.42;77.96;101188.50;5081132;28;46107;-65
2023/12/27 11:03:25;;;;;;;;;4.00;4.00;;;;;11.52;78.14;101192.66;5081407;28;45382;-65
2023/12/27 11:05:51;;;;;;;;;4.00;4.00;;;;;11.32;78.21;101150.47;5081349;28;45420;-65
2023/12/27 11:08:18;;;;;;;;;4.00;4.00;;;;;11.48;78.15;101158.94;5081175;28;45331;-65
2023/12/27 11:10:46;;;;;;;;;4.75;4.75;;;;;11.41;78.07;101141.31;5081112;28;45373;-65
2023/12/27 11:13:16;;;;;;;;;4.75;4.00;;;;;11.41;77.88;101135.97;5081093;28;45497;-65
2023/12/27 11:15:45;;;;;;;;;4.00;4.00;;;;;11.46;77.59;101134.03;5081190;28;45375;-64
2023/12/27 11:18:11;;;;;;;;;4.00;4.00;;;;;11.46;77.81;101129.56;5081123;28;45514;-65